sensor_id;sensor_type;location;lat;lon;timestamp;pressure;altitude;pressure_sealevel;temperature;humidity
58967;BME280;44744;51.894;5.080;2023-08-06T00:00:40;100509.23;;;14.93;90.01
58967;BME280;44744;51.894;5.080;2023-08-06T00:01:40;100509.21;;;14.93;90.00
58967;BME280;44744;51.894;5.080;2023-08-06T00:02:41;100510.42;;;14.93;90.15
58967;BME280;44744;51.894;5.080;2023-08-06T00:03:46;100509.50;;;14.94;90.00
58967;BME280;44744;51.894;5.080;2023-08-06T00:04:47;100508.30;;;14.93;89.86
58967;BME280;44744;51.894;5.080;2023-08-06T00:05:47;100509.27;;;14.92;90.01
58967;BME280;44744;51.894;5.080;2023-08-06T00:06:49;100513.29;;;14.93;89.88
58967;BME280;44744;51.894;5.080;2023-08-06T00:07:52;100509.83;;;14.92;89.85
58967;BME280;44744;51.894;5.080;2023-08-06T00:09:11;100510.36;;;14.92;89.85
58967;BME280;44744;51.894;5.080;2023-08-06T00:10:17;100512.67;;;14.92;89.97
58967;BME280;44744;51.894;5.080;2023-08-06T00:11:21;100509.80;;;14.90;89.78
58967;BME280;44744;51.894;5.080;2023-08-06T00:12:21;100512.69;;;14.90;89.87
58967;BME280;44744;51.894;5.080;2023-08-06T00:13:22;100510.99;;;14.88;90.15
58967;BME280;44744;51.894;5.080;2023-08-06T00:14:23;100512.06;;;14.88;90.10
58967;BME280;44744;51.894;5.080;2023-08-06T00:15:28;100511.62;;;14.89;90.23
58967;BME280;44744;51.894;5.080;2023-08-06T00:16:49;100510.38;;;14.90;90.08
58967;BME280;44744;51.894;5.080;2023-08-06T00:18:06;100511.40;;;14.90;90.13
58967;BME280;44744;51.894;5.080;2023-08-06T00:19:07;100507.86;;;14.90;90.07
58967;BME280;44744;51.894;5.080;2023-08-06T00:20:13;100507.52;;;14.90;90.29
58967;BME280;44744;51.894;5.080;2023-08-06T00:21:16;100506.93;;;14.90;90.30
58967;BME280;44744;51.894;5.080;2023-08-06T00:22:18;100506.45;;;14.89;90.31
58967;BME280;44744;51.894;5.080;2023-08-06T00:23:27;100506.56;;;14.90;90.37
58967;BME280;44744;51.894;5.080;2023-08-06T00:24:28;100506.89;;;14.91;90.29
58967;BME280;44744;51.894;5.080;2023-08-06T00:25:30;100505.31;;;14.90;90.48
58967;BME280;44744;51.894;5.080;2023-08-06T00:26:33;100508.48;;;14.91;90.44
58967;BME280;44744;51.894;5.080;2023-08-06T00:27:36;100502.48;;;14.90;90.53
58967;BME280;44744;51.894;5.080;2023-08-06T00:28:38;100506.20;;;14.90;90.32
58967;BME280;44744;51.894;5.080;2023-08-06T00:29:40;100504.24;;;14.91;90.43
58967;BME280;44744;51.894;5.080;2023-08-06T00:30:43;100506.48;;;14.92;90.47
58967;BME280;44744;51.894;5.080;2023-08-06T00:31:46;100505.95;;;14.91;90.28
58967;BME280;44744;51.894;5.080;2023-08-06T00:32:50;100504.63;;;14.90;90.43
58967;BME280;44744;51.894;5.080;2023-08-06T00:33:53;100497.25;;;14.89;90.58
58967;BME280;44744;51.894;5.080;2023-08-06T00:34:53;100497.56;;;14.90;90.62
58967;BME280;44744;51.894;5.080;2023-08-06T00:35:54;100502.16;;;14.90;90.63
58967;BME280;44744;51.894;5.080;2023-08-06T00:36:58;100503.39;;;14.90;90.74
58967;BME280;44744;51.894;5.080;2023-08-06T00:37:59;100501.77;;;14.90;90.71
58967;BME280;44744;51.894;5.080;2023-08-06T00:38:59;100503.43;;;14.92;90.77
58967;BME280;44744;51.894;5.080;2023-08-06T00:40:03;100499.96;;;14.91;90.72
58967;BME280;44744;51.894;5.080;2023-08-06T00:41:03;100498.64;;;14.92;90.70
58967;BME280;44744;51.894;5.080;2023-08-06T00:42:06;100502.14;;;14.92;90.73
58967;BME280;44744;51.894;5.080;2023-08-06T00:43:12;100499.52;;;14.92;90.65
58967;BME280;44744;51.894;5.080;2023-08-06T00:44:13;100503.44;;;14.92;90.29
58967;BME280;44744;51.894;5.080;2023-08-06T00:45:14;100501.56;;;14.90;90.62
58967;BME280;44744;51.894;5.080;2023-08-06T00:46:15;100503.32;;;14.91;90.84
58967;BME280;44744;51.894;5.080;2023-08-06T00:47:17;100502.45;;;14.91;90.72
58967;BME280;44744;51.894;5.080;2023-08-06T00:48:17;100499.41;;;14.91;90.78
58967;BME280;44744;51.894;5.080;2023-08-06T00:49:20;100498.17;;;14.91;90.79
58967;BME280;44744;51.894;5.080;2023-08-06T00:50:21;100498.29;;;14.91;90.75
58967;BME280;44744;51.894;5.080;2023-08-06T00:51:42;100497.41;;;14.91;90.68
58967;BME280;44744;51.894;5.080;2023-08-06T00:53:01;100495.35;;;14.93;90.91
58967;BME280;44744;51.894;5.080;2023-08-06T00:54:04;100499.09;;;14.93;90.84
58967;BME280;44744;51.894;5.080;2023-08-06T00:55:08;100501.57;;;14.93;90.72
58967;BME280;44744;51.894;5.080;2023-08-06T00:56:10;100502.35;;;14.92;90.73
58967;BME280;44744;51.894;5.080;2023-08-06T00:57:16;100502.13;;;14.92;90.88
58967;BME280;44744;51.894;5.080;2023-08-06T00:58:17;100500.15;;;14.93;90.79
58967;BME280;44744;51.894;5.080;2023-08-06T00:59:19;100502.48;;;14.92;90.99
58967;BME280;44744;51.894;5.080;2023-08-06T01:00:20;100503.34;;;14.93;90.84
58967;BME280;44744;51.894;5.080;2023-08-06T01:01:22;100500.16;;;14.93;90.97
58967;BME280;44744;51.894;5.080;2023-08-06T01:02:23;100501.70;;;14.93;90.83
58967;BME280;44744;51.894;5.080;2023-08-06T01:03:23;100500.35;;;14.92;91.02
58967;BME280;44744;51.894;5.080;2023-08-06T01:04:24;100498.16;;;14.93;90.85
58967;BME280;44744;51.894;5.080;2023-08-06T01:05:29;100495.77;;;14.92;91.08
58967;BME280;44744;51.894;5.080;2023-08-06T01:06:35;100499.60;;;14.93;91.15
58967;BME280;44744;51.894;5.080;2023-08-06T01:11:48;100494.34;;;14.94;91.20
58967;BME280;44744;51.894;5.080;2023-08-06T01:14:28;100492.53;;;14.94;91.14
58967;BME280;44744;51.894;5.080;2023-08-06T01:15:35;100496.45;;;14.94;91.19
58967;BME280;44744;51.894;5.080;2023-08-06T01:16:57;100496.48;;;14.94;91.21
58967;BME280;44744;51.894;5.080;2023-08-06T01:17:58;100493.14;;;14.93;91.26
58967;BME280;44744;51.894;5.080;2023-08-06T01:19:20;100495.57;;;14.94;91.36
58967;BME280;44744;51.894;5.080;2023-08-06T01:20:22;100498.41;;;14.94;91.47
58967;BME280;44744;51.894;5.080;2023-08-06T01:21:23;100497.14;;;14.95;91.26
58967;BME280;44744;51.894;5.080;2023-08-06T01:22:25;100489.46;;;14.95;91.30
58967;BME280;44744;51.894;5.080;2023-08-06T01:23:25;100491.41;;;14.95;91.32
58967;BME280;44744;51.894;5.080;2023-08-06T01:24:25;100495.51;;;14.95;91.55
58967;BME280;44744;51.894;5.080;2023-08-06T01:26:57;100493.56;;;14.95;91.44
58967;BME280;44744;51.894;5.080;2023-08-06T01:28:07;100489.87;;;14.94;91.48
58967;BME280;44744;51.894;5.080;2023-08-06T01:30:12;100493.77;;;14.95;91.42
58967;BME280;44744;51.894;5.080;2023-08-06T01:31:18;100489.80;;;14.95;91.48
58967;BME280;44744;51.894;5.080;2023-08-06T01:32:23;100492.66;;;14.95;91.20
58967;BME280;44744;51.894;5.080;2023-08-06T01:33:25;100495.74;;;14.94;91.36
58967;BME280;44744;51.894;5.080;2023-08-06T01:34:30;100497.00;;;14.94;91.37
58967;BME280;44744;51.894;5.080;2023-08-06T01:35:33;100496.13;;;14.94;91.36
58967;BME280;44744;51.894;5.080;2023-08-06T01:36:35;100495.27;;;14.93;91.28
58967;BME280;44744;51.894;5.080;2023-08-06T01:37:40;100495.15;;;14.93;91.34
58967;BME280;44744;51.894;5.080;2023-08-06T01:38:41;100501.08;;;14.92;91.62
58967;BME280;44744;51.894;5.080;2023-08-06T01:39:44;100498.27;;;14.92;91.46
58967;BME280;44744;51.894;5.080;2023-08-06T01:40:45;100499.05;;;14.91;91.62
58967;BME280;44744;51.894;5.080;2023-08-06T01:41:46;100498.77;;;14.92;91.37
58967;BME280;44744;51.894;5.080;2023-08-06T01:42:48;100498.69;;;14.91;91.40
58967;BME280;44744;51.894;5.080;2023-08-06T01:43:48;100499.29;;;14.90;91.44
58967;BME280;44744;51.894;5.080;2023-08-06T01:44:49;100496.52;;;14.89;91.53
58967;BME280;44744;51.894;5.080;2023-08-06T01:45:49;100500.45;;;14.89;91.44
58967;BME280;44744;51.894;5.080;2023-08-06T01:46:49;100499.00;;;14.87;91.32
58967;BME280;44744;51.894;5.080;2023-08-06T01:47:49;100495.96;;;14.87;91.64
58967;BME280;44744;51.894;5.080;2023-08-06T01:48:50;100497.17;;;14.88;91.37
58967;BME280;44744;51.894;5.080;2023-08-06T01:49:51;100494.43;;;14.86;91.62
58967;BME280;44744;51.894;5.080;2023-08-06T01:50:51;100497.31;;;14.85;91.61
58967;BME280;44744;51.894;5.080;2023-08-06T01:51:52;100497.55;;;14.85;91.47
58967;BME280;44744;51.894;5.080;2023-08-06T01:52:54;100495.96;;;14.85;91.55
58967;BME280;44744;51.894;5.080;2023-08-06T01:53:54;100496.33;;;14.84;91.71
58967;BME280;44744;51.894;5.080;2023-08-06T01:54:56;100494.23;;;14.84;91.66
58967;BME280;44744;51.894;5.080;2023-08-06T01:55:59;100496.96;;;14.83;92.02
58967;BME280;44744;51.894;5.080;2023-08-06T01:57:00;100494.47;;;14.83;91.83
58967;BME280;44744;51.894;5.080;2023-08-06T01:58:00;100494.86;;;14.83;91.68
58967;BME280;44744;51.894;5.080;2023-08-06T01:59:01;100496.63;;;14.83;91.91
58967;BME280;44744;51.894;5.080;2023-08-06T02:00:02;100500.35;;;14.83;91.84
58967;BME280;44744;51.894;5.080;2023-08-06T02:01:04;100497.13;;;14.83;92.08
58967;BME280;44744;51.894;5.080;2023-08-06T02:02:04;100497.44;;;14.84;92.12
58967;BME280;44744;51.894;5.080;2023-08-06T02:03:04;100500.84;;;14.84;92.11
58967;BME280;44744;51.894;5.080;2023-08-06T02:04:07;100498.45;;;14.84;92.12
58967;BME280;44744;51.894;5.080;2023-08-06T02:05:10;100500.22;;;14.85;92.17
58967;BME280;44744;51.894;5.080;2023-08-06T02:06:12;100498.21;;;14.85;91.90
58967;BME280;44744;51.894;5.080;2023-08-06T02:07:12;100497.55;;;14.85;92.08
58967;BME280;44744;51.894;5.080;2023-08-06T02:08:13;100497.35;;;14.85;91.96
58967;BME280;44744;51.894;5.080;2023-08-06T02:09:14;100497.86;;;14.85;92.14
58967;BME280;44744;51.894;5.080;2023-08-06T02:10:14;100501.23;;;14.85;92.05
58967;BME280;44744;51.894;5.080;2023-08-06T02:11:20;100504.10;;;14.85;92.05
58967;BME280;44744;51.894;5.080;2023-08-06T02:12:21;100499.02;;;14.84;92.16
58967;BME280;44744;51.894;5.080;2023-08-06T02:13:30;100502.58;;;14.84;92.09
58967;BME280;44744;51.894;5.080;2023-08-06T02:14:31;100502.52;;;14.85;92.38
58967;BME280;44744;51.894;5.080;2023-08-06T02:15:31;100502.88;;;14.85;92.23
58967;BME280;44744;51.894;5.080;2023-08-06T02:16:36;100499.29;;;14.85;92.05
58967;BME280;44744;51.894;5.080;2023-08-06T02:17:37;100504.15;;;14.85;92.55
58967;BME280;44744;51.894;5.080;2023-08-06T02:18:39;100501.35;;;14.84;92.39
58967;BME280;44744;51.894;5.080;2023-08-06T02:19:42;100498.48;;;14.84;92.33
58967;BME280;44744;51.894;5.080;2023-08-06T02:21:01;100500.98;;;14.84;92.38
58967;BME280;44744;51.894;5.080;2023-08-06T02:22:04;100502.75;;;14.84;92.36
58967;BME280;44744;51.894;5.080;2023-08-06T02:23:07;100503.06;;;14.85;92.41
58967;BME280;44744;51.894;5.080;2023-08-06T02:24:10;100500.91;;;14.85;92.60
58967;BME280;44744;51.894;5.080;2023-08-06T02:25:12;100499.09;;;14.85;92.58
58967;BME280;44744;51.894;5.080;2023-08-06T02:26:16;100500.16;;;14.85;92.68
58967;BME280;44744;51.894;5.080;2023-08-06T02:27:16;100500.11;;;14.86;92.65
58967;BME280;44744;51.894;5.080;2023-08-06T02:28:19;100501.48;;;14.87;92.65
58967;BME280;44744;51.894;5.080;2023-08-06T02:29:21;100498.27;;;14.87;92.53
58967;BME280;44744;51.894;5.080;2023-08-06T02:30:21;100499.56;;;14.87;92.56
58967;BME280;44744;51.894;5.080;2023-08-06T02:31:45;100499.70;;;14.87;92.62
58967;BME280;44744;51.894;5.080;2023-08-06T02:32:47;100497.20;;;14.87;92.62
58967;BME280;44744;51.894;5.080;2023-08-06T02:33:48;100499.86;;;14.87;92.53
58967;BME280;44744;51.894;5.080;2023-08-06T02:34:50;100498.69;;;14.87;92.51
58967;BME280;44744;51.894;5.080;2023-08-06T02:36:01;100499.06;;;14.86;92.44
58967;BME280;44744;51.894;5.080;2023-08-06T02:37:02;100499.68;;;14.85;92.58
58967;BME280;44744;51.894;5.080;2023-08-06T02:38:02;100500.19;;;14.85;92.69
58967;BME280;44744;51.894;5.080;2023-08-06T02:39:05;100502.30;;;14.86;92.75
58967;BME280;44744;51.894;5.080;2023-08-06T02:40:27;100502.30;;;14.86;92.77
58967;BME280;44744;51.894;5.080;2023-08-06T02:41:29;100503.28;;;14.85;92.74
58967;BME280;44744;51.894;5.080;2023-08-06T02:42:29;100500.79;;;14.84;92.99
58967;BME280;44744;51.894;5.080;2023-08-06T02:43:30;100498.67;;;14.84;92.82
58967;BME280;44744;51.894;5.080;2023-08-06T02:44:53;100501.11;;;14.85;92.84
58967;BME280;44744;51.894;5.080;2023-08-06T02:46:00;100498.48;;;14.84;92.84
58967;BME280;44744;51.894;5.080;2023-08-06T02:47:03;100501.14;;;14.85;92.89
58967;BME280;44744;51.894;5.080;2023-08-06T02:48:05;100501.13;;;14.84;92.84
58967;BME280;44744;51.894;5.080;2023-08-06T02:49:08;100499.00;;;14.84;92.90
58967;BME280;44744;51.894;5.080;2023-08-06T02:50:08;100499.88;;;14.85;93.01
58967;BME280;44744;51.894;5.080;2023-08-06T02:51:10;100497.94;;;14.85;92.77
58967;BME280;44744;51.894;5.080;2023-08-06T02:52:10;100497.77;;;14.84;92.73
58967;BME280;44744;51.894;5.080;2023-08-06T02:53:10;100496.86;;;14.84;93.01
58967;BME280;44744;51.894;5.080;2023-08-06T02:54:11;100502.19;;;14.85;92.79
58967;BME280;44744;51.894;5.080;2023-08-06T02:55:12;100496.95;;;14.83;92.90
58967;BME280;44744;51.894;5.080;2023-08-06T02:56:16;100498.67;;;14.84;93.08
58967;BME280;44744;51.894;5.080;2023-08-06T02:57:21;100498.41;;;14.85;93.09
58967;BME280;44744;51.894;5.080;2023-08-06T02:58:25;100497.48;;;14.86;93.27
58967;BME280;44744;51.894;5.080;2023-08-06T02:59:25;100493.08;;;14.85;93.13
58967;BME280;44744;51.894;5.080;2023-08-06T03:00:26;100492.16;;;14.86;93.17
58967;BME280;44744;51.894;5.080;2023-08-06T03:01:27;100489.98;;;14.86;93.07
58967;BME280;44744;51.894;5.080;2023-08-06T03:02:33;100491.64;;;14.85;93.02
58967;BME280;44744;51.894;5.080;2023-08-06T03:03:35;100490.69;;;14.86;93.13
58967;BME280;44744;51.894;5.080;2023-08-06T03:04:35;100492.64;;;14.87;93.01
58967;BME280;44744;51.894;5.080;2023-08-06T03:05:37;100493.71;;;14.87;93.11
58967;BME280;44744;51.894;5.080;2023-08-06T03:06:40;100491.40;;;14.86;93.18
58967;BME280;44744;51.894;5.080;2023-08-06T03:07:40;100492.46;;;14.86;93.32
58967;BME280;44744;51.894;5.080;2023-08-06T03:08:40;100491.52;;;14.87;93.28
58967;BME280;44744;51.894;5.080;2023-08-06T03:09:50;100491.88;;;14.87;93.04
58967;BME280;44744;51.894;5.080;2023-08-06T03:10:51;100489.75;;;14.87;93.15
58967;BME280;44744;51.894;5.080;2023-08-06T03:11:52;100492.95;;;14.87;93.14
58967;BME280;44744;51.894;5.080;2023-08-06T03:12:53;100493.50;;;14.87;93.31
58967;BME280;44744;51.894;5.080;2023-08-06T03:13:55;100492.42;;;14.87;93.17
58967;BME280;44744;51.894;5.080;2023-08-06T03:14:57;100491.13;;;14.88;93.30
58967;BME280;44744;51.894;5.080;2023-08-06T03:15:59;100494.33;;;14.88;93.36
58967;BME280;44744;51.894;5.080;2023-08-06T03:17:00;100494.05;;;14.87;93.33
58967;BME280;44744;51.894;5.080;2023-08-06T03:18:02;100493.27;;;14.88;93.18
58967;BME280;44744;51.894;5.080;2023-08-06T03:19:05;100497.23;;;14.87;93.18
58967;BME280;44744;51.894;5.080;2023-08-06T03:20:06;100492.30;;;14.86;93.12
58967;BME280;44744;51.894;5.080;2023-08-06T03:21:08;100493.55;;;14.86;93.18
58967;BME280;44744;51.894;5.080;2023-08-06T03:22:08;100493.13;;;14.84;93.20
58967;BME280;44744;51.894;5.080;2023-08-06T03:23:09;100490.62;;;14.84;93.28
58967;BME280;44744;51.894;5.080;2023-08-06T03:24:09;100493.64;;;14.85;93.40
58967;BME280;44744;51.894;5.080;2023-08-06T03:25:10;100492.77;;;14.85;93.26
58967;BME280;44744;51.894;5.080;2023-08-06T03:26:14;100490.48;;;14.84;93.34
58967;BME280;44744;51.894;5.080;2023-08-06T03:27:14;100492.25;;;14.84;93.31
58967;BME280;44744;51.894;5.080;2023-08-06T03:28:15;100492.23;;;14.85;93.45
58967;BME280;44744;51.894;5.080;2023-08-06T03:29:16;100491.16;;;14.85;93.43
58967;BME280;44744;51.894;5.080;2023-08-06T03:30:17;100491.48;;;14.85;93.47
58967;BME280;44744;51.894;5.080;2023-08-06T03:31:20;100492.87;;;14.85;93.52
58967;BME280;44744;51.894;5.080;2023-08-06T03:32:23;100494.09;;;14.86;93.52
58967;BME280;44744;51.894;5.080;2023-08-06T03:33:23;100495.13;;;14.86;93.35
58967;BME280;44744;51.894;5.080;2023-08-06T03:34:25;100495.55;;;14.85;93.22
58967;BME280;44744;51.894;5.080;2023-08-06T03:35:25;100497.48;;;14.85;93.15
58967;BME280;44744;51.894;5.080;2023-08-06T03:36:27;100494.64;;;14.85;93.36
58967;BME280;44744;51.894;5.080;2023-08-06T03:37:28;100494.63;;;14.86;93.27
58967;BME280;44744;51.894;5.080;2023-08-06T03:38:29;100496.95;;;14.85;93.42
58967;BME280;44744;51.894;5.080;2023-08-06T03:39:30;100495.69;;;14.86;93.67
58967;BME280;44744;51.894;5.080;2023-08-06T03:40:31;100496.59;;;14.86;93.53
58967;BME280;44744;51.894;5.080;2023-08-06T03:41:32;100496.37;;;14.86;93.68
58967;BME280;44744;51.894;5.080;2023-08-06T03:42:36;100498.14;;;14.86;93.39
58967;BME280;44744;51.894;5.080;2023-08-06T03:43:38;100496.91;;;14.86;93.59
58967;BME280;44744;51.894;5.080;2023-08-06T03:44:40;100498.30;;;14.87;93.66
58967;BME280;44744;51.894;5.080;2023-08-06T03:46:00;100498.24;;;14.88;93.50
58967;BME280;44744;51.894;5.080;2023-08-06T03:47:01;100497.00;;;14.88;93.69
58967;BME280;44744;51.894;5.080;2023-08-06T03:48:02;100494.81;;;14.88;93.55
58967;BME280;44744;51.894;5.080;2023-08-06T03:49:04;100494.90;;;14.89;93.62
58967;BME280;44744;51.894;5.080;2023-08-06T03:50:05;100496.50;;;14.90;93.49
58967;BME280;44744;51.894;5.080;2023-08-06T03:51:08;100494.98;;;14.88;93.46
58967;BME280;44744;51.894;5.080;2023-08-06T03:52:09;100494.87;;;14.87;93.58
58967;BME280;44744;51.894;5.080;2023-08-06T03:53:11;100496.62;;;14.88;93.64
58967;BME280;44744;51.894;5.080;2023-08-06T03:54:12;100496.57;;;14.89;93.56
58967;BME280;44744;51.894;5.080;2023-08-06T03:55:13;100495.86;;;14.88;93.59
58967;BME280;44744;51.894;5.080;2023-08-06T03:56:14;100496.27;;;14.88;93.58
58967;BME280;44744;51.894;5.080;2023-08-06T03:57:16;100498.21;;;14.88;93.65
58967;BME280;44744;51.894;5.080;2023-08-06T03:58:17;100496.06;;;14.88;93.76
58967;BME280;44744;51.894;5.080;2023-08-06T03:59:21;100501.66;;;14.90;93.83
58967;BME280;44744;51.894;5.080;2023-08-06T04:00:21;100500.98;;;14.89;93.87
58967;BME280;44744;51.894;5.080;2023-08-06T04:01:22;100499.16;;;14.89;93.91
58967;BME280;44744;51.894;5.080;2023-08-06T04:02:23;100500.77;;;14.89;93.78
58967;BME280;44744;51.894;5.080;2023-08-06T04:03:25;100500.02;;;14.90;93.63
58967;BME280;44744;51.894;5.080;2023-08-06T04:04:26;100504.44;;;14.90;93.52
58967;BME280;44744;51.894;5.080;2023-08-06T04:05:35;100503.56;;;14.90;93.64
58967;BME280;44744;51.894;5.080;2023-08-06T04:06:35;100501.52;;;14.89;93.55
58967;BME280;44744;51.894;5.080;2023-08-06T04:07:36;100505.45;;;14.89;93.61
58967;BME280;44744;51.894;5.080;2023-08-06T04:08:36;100505.44;;;14.89;93.48
58967;BME280;44744;51.894;5.080;2023-08-06T04:10:57;100504.28;;;14.88;93.65
58967;BME280;44744;51.894;5.080;2023-08-06T04:11:59;100503.10;;;14.87;93.64
58967;BME280;44744;51.894;5.080;2023-08-06T04:13:00;100504.65;;;14.88;93.55
58967;BME280;44744;51.894;5.080;2023-08-06T04:14:02;100501.52;;;14.87;93.62
58967;BME280;44744;51.894;5.080;2023-08-06T04:15:03;100505.01;;;14.88;93.86
58967;BME280;44744;51.894;5.080;2023-08-06T04:16:11;100503.25;;;14.87;93.81
58967;BME280;44744;51.894;5.080;2023-08-06T04:17:14;100503.20;;;14.88;93.94
58967;BME280;44744;51.894;5.080;2023-08-06T04:18:14;100505.50;;;14.88;93.91
58967;BME280;44744;51.894;5.080;2023-08-06T04:19:15;100507.79;;;14.89;93.80
58967;BME280;44744;51.894;5.080;2023-08-06T04:20:18;100508.48;;;14.89;93.94
58967;BME280;44744;51.894;5.080;2023-08-06T04:21:18;100506.96;;;14.90;94.00
58967;BME280;44744;51.894;5.080;2023-08-06T04:22:19;100508.76;;;14.90;93.75
58967;BME280;44744;51.894;5.080;2023-08-06T04:23:20;100513.31;;;14.90;93.67
58967;BME280;44744;51.894;5.080;2023-08-06T04:24:20;100509.34;;;14.89;93.61
58967;BME280;44744;51.894;5.080;2023-08-06T04:25:20;100512.16;;;14.90;93.84
58967;BME280;44744;51.894;5.080;2023-08-06T04:26:22;100512.89;;;14.89;93.99
58967;BME280;44744;51.894;5.080;2023-08-06T04:27:24;100513.06;;;14.90;93.94
58967;BME280;44744;51.894;5.080;2023-08-06T04:28:28;100515.21;;;14.89;94.05
58967;BME280;44744;51.894;5.080;2023-08-06T04:29:30;100516.91;;;14.90;93.93
58967;BME280;44744;51.894;5.080;2023-08-06T04:30:31;100520.61;;;14.91;93.99
58967;BME280;44744;51.894;5.080;2023-08-06T04:31:31;100523.27;;;14.91;94.02
58967;BME280;44744;51.894;5.080;2023-08-06T04:32:33;100522.55;;;14.91;94.02
58967;BME280;44744;51.894;5.080;2023-08-06T04:33:42;100522.23;;;14.90;93.92
58967;BME280;44744;51.894;5.080;2023-08-06T04:34:42;100527.95;;;14.90;93.81
58967;BME280;44744;51.894;5.080;2023-08-06T04:35:45;100525.02;;;14.89;93.88
58967;BME280;44744;51.894;5.080;2023-08-06T04:36:49;100528.34;;;14.90;93.91
58967;BME280;44744;51.894;5.080;2023-08-06T04:37:53;100529.51;;;14.88;93.97
58967;BME280;44744;51.894;5.080;2023-08-06T04:38:53;100527.54;;;14.89;94.15
58967;BME280;44744;51.894;5.080;2023-08-06T04:39:54;100530.89;;;14.89;94.08
58967;BME280;44744;51.894;5.080;2023-08-06T04:41:03;100532.35;;;14.89;93.97
58967;BME280;44744;51.894;5.080;2023-08-06T04:42:04;100533.55;;;14.89;94.13
58967;BME280;44744;51.894;5.080;2023-08-06T04:43:06;100536.89;;;14.90;94.21
58967;BME280;44744;51.894;5.080;2023-08-06T04:44:08;100535.23;;;14.90;94.30
58967;BME280;44744;51.894;5.080;2023-08-06T04:45:09;100535.70;;;14.91;94.26
58967;BME280;44744;51.894;5.080;2023-08-06T04:46:10;100540.44;;;14.92;94.35
58967;BME280;44744;51.894;5.080;2023-08-06T04:47:14;100536.31;;;14.92;94.39
58967;BME280;44744;51.894;5.080;2023-08-06T04:48:14;100538.36;;;14.93;94.32
58967;BME280;44744;51.894;5.080;2023-08-06T04:49:15;100539.97;;;14.93;94.18
58967;BME280;44744;51.894;5.080;2023-08-06T04:50:20;100537.27;;;14.92;94.18
58967;BME280;44744;51.894;5.080;2023-08-06T04:51:20;100538.88;;;14.92;94.34
58967;BME280;44744;51.894;5.080;2023-08-06T04:52:26;100536.23;;;14.91;94.14
58967;BME280;44744;51.894;5.080;2023-08-06T04:53:28;100537.71;;;14.90;94.11
58967;BME280;44744;51.894;5.080;2023-08-06T04:54:30;100540.31;;;14.89;94.32
58967;BME280;44744;51.894;5.080;2023-08-06T04:55:34;100541.16;;;14.90;94.45
58967;BME280;44744;51.894;5.080;2023-08-06T04:56:35;100539.70;;;14.90;94.66
58967;BME280;44744;51.894;5.080;2023-08-06T04:57:36;100538.89;;;14.91;94.68
58967;BME280;44744;51.894;5.080;2023-08-06T04:58:36;100539.42;;;14.91;94.55
58967;BME280;44744;51.894;5.080;2023-08-06T04:59:36;100537.98;;;14.91;94.40
58967;BME280;44744;51.894;5.080;2023-08-06T05:00:37;100540.36;;;14.91;94.42
58967;BME280;44744;51.894;5.080;2023-08-06T05:01:39;100540.61;;;14.90;94.54
58967;BME280;44744;51.894;5.080;2023-08-06T05:02:40;100540.56;;;14.91;94.29
58967;BME280;44744;51.894;5.080;2023-08-06T05:03:42;100539.98;;;14.89;94.54
58967;BME280;44744;51.894;5.080;2023-08-06T05:04:44;100537.20;;;14.88;94.48
58967;BME280;44744;51.894;5.080;2023-08-06T05:05:45;100540.05;;;14.88;94.57
58967;BME280;44744;51.894;5.080;2023-08-06T05:06:46;100539.39;;;14.87;94.45
58967;BME280;44744;51.894;5.080;2023-08-06T05:07:53;100538.71;;;14.87;94.51
58967;BME280;44744;51.894;5.080;2023-08-06T05:09:00;100543.55;;;14.87;94.47
58967;BME280;44744;51.894;5.080;2023-08-06T05:10:21;100543.74;;;14.86;94.56
58967;BME280;44744;51.894;5.080;2023-08-06T05:11:24;100546.09;;;14.85;94.66
58967;BME280;44744;51.894;5.080;2023-08-06T05:12:29;100545.74;;;14.85;94.85
58967;BME280;44744;51.894;5.080;2023-08-06T05:13:30;100545.75;;;14.85;94.57
58967;BME280;44744;51.894;5.080;2023-08-06T05:14:31;100544.27;;;14.84;94.81
58967;BME280;44744;51.894;5.080;2023-08-06T05:15:33;100548.46;;;14.83;94.75
58967;BME280;44744;51.894;5.080;2023-08-06T05:16:36;100549.05;;;14.82;94.89
58967;BME280;44744;51.894;5.080;2023-08-06T05:17:36;100552.02;;;14.81;95.01
58967;BME280;44744;51.894;5.080;2023-08-06T05:18:37;100549.77;;;14.80;94.89
58967;BME280;44744;51.894;5.080;2023-08-06T05:19:38;100553.89;;;14.79;95.03
58967;BME280;44744;51.894;5.080;2023-08-06T05:20:40;100554.78;;;14.79;95.12
58967;BME280;44744;51.894;5.080;2023-08-06T05:21:41;100552.55;;;14.78;94.96
58967;BME280;44744;51.894;5.080;2023-08-06T05:22:43;100558.29;;;14.78;95.11
58967;BME280;44744;51.894;5.080;2023-08-06T05:23:43;100557.10;;;14.77;95.15
58967;BME280;44744;51.894;5.080;2023-08-06T05:24:43;100560.56;;;14.76;95.26
58967;BME280;44744;51.894;5.080;2023-08-06T05:25:44;100564.90;;;14.75;95.33
58967;BME280;44744;51.894;5.080;2023-08-06T05:26:47;100561.32;;;14.75;95.72
58967;BME280;44744;51.894;5.080;2023-08-06T05:27:49;100563.73;;;14.74;95.98
58967;BME280;44744;51.894;5.080;2023-08-06T05:29:04;100568.55;;;14.71;96.49
58967;BME280;44744;51.894;5.080;2023-08-06T05:30:08;100565.58;;;14.68;96.47
58967;BME280;44744;51.894;5.080;2023-08-06T05:31:08;100569.26;;;14.66;96.53
58967;BME280;44744;51.894;5.080;2023-08-06T05:32:09;100570.67;;;14.64;96.43
58967;BME280;44744;51.894;5.080;2023-08-06T05:33:09;100570.89;;;14.64;96.80
58967;BME280;44744;51.894;5.080;2023-08-06T05:34:10;100574.05;;;14.62;97.15
58967;BME280;44744;51.894;5.080;2023-08-06T05:35:10;100575.02;;;14.61;98.22
58967;BME280;44744;51.894;5.080;2023-08-06T05:36:12;100575.36;;;14.58;98.55
58967;BME280;44744;51.894;5.080;2023-08-06T05:37:12;100579.04;;;14.55;99.38
58967;BME280;44744;51.894;5.080;2023-08-06T05:38:16;100581.91;;;14.49;99.57